UKWW/VIN METAR and TAF weather

Enter ICAO airport designator
Station Type Date Time Source
UKWW METAR 2020/07/11 18:00 UTC NOAA

UKWW 111800Z 16004MPS CAVOK 24/16 Q1016 NOSIG


Station Type Date Time Source
UKWW Decoded METAR 2020/07/11 18:00 UTC NOAA

Station name not available
Jul 11, 2020 - 02:00 PM EDT / 2020.07.11 1800 UTC
Wind: from the SSE (160 degrees) at 9 MPH (8 KT):0
Visibility: greater than 7 mile(s):0
Temperature: 75 F (24 C)
Dew Point: 60 F (16 C)
Relative Humidity: 60%
Pressure (altimeter): 30.00 in. Hg (1016 hPa)
ob: UKWW 111800Z 16004MPS CAVOK 24/16 Q1016 NOSIG
cycle: 18

Station Type Date Time Source
UKWW TAF 2010/03/21 10:45 UTC NOAA

TAF UKWW 211045Z 2112/2212 24005G10MPS 9999 SCT020 BKN070
TEMPO 2115/2207 1400 -SHRA BR SCT004 BKN007CB
FM220700 34007G12MPS 9999 SCT015 BKN100 TX11/2112Z TN01/2204Z

Example: see airport list